sensor_id;sensor_type;location;lat;lon;timestamp;temperature;humidity
21770;DHT22;11046;49.558;8.674;2023-07-20T00:02:42;20.80;54.70
21770;DHT22;11046;49.558;8.674;2023-07-20T00:05:43;20.80;54.80
21770;DHT22;11046;49.558;8.674;2023-07-20T00:08:44;20.80;54.80
21770;DHT22;11046;49.558;8.674;2023-07-20T00:11:49;20.80;54.60
21770;DHT22;11046;49.558;8.674;2023-07-20T00:14:52;20.80;54.70
21770;DHT22;11046;49.558;8.674;2023-07-20T00:17:53;20.70;54.70
21770;DHT22;11046;49.558;8.674;2023-07-20T00:20:54;20.60;54.90
21770;DHT22;11046;49.558;8.674;2023-07-20T00:23:55;20.60;55.00
21770;DHT22;11046;49.558;8.674;2023-07-20T00:26:55;20.60;55.20
21770;DHT22;11046;49.558;8.674;2023-07-20T00:29:56;20.50;55.20
21770;DHT22;11046;49.558;8.674;2023-07-20T00:32:56;20.60;55.40
21770;DHT22;11046;49.558;8.674;2023-07-20T00:35:57;20.50;55.40
21770;DHT22;11046;49.558;8.674;2023-07-20T00:38:58;20.50;55.50
21770;DHT22;11046;49.558;8.674;2023-07-20T00:41:58;20.50;55.50
21770;DHT22;11046;49.558;8.674;2023-07-20T00:44:59;20.50;55.70
21770;DHT22;11046;49.558;8.674;2023-07-20T00:48:01;20.50;55.60
21770;DHT22;11046;49.558;8.674;2023-07-20T00:51:02;20.40;55.60
21770;DHT22;11046;49.558;8.674;2023-07-20T00:54:04;20.30;56.30
21770;DHT22;11046;49.558;8.674;2023-07-20T00:57:07;20.30;55.90
21770;DHT22;11046;49.558;8.674;2023-07-20T01:00:08;20.30;55.90
21770;DHT22;11046;49.558;8.674;2023-07-20T01:03:09;20.20;56.00
21770;DHT22;11046;49.558;8.674;2023-07-20T01:09:20;20.10;56.20
21770;DHT22;11046;49.558;8.674;2023-07-20T01:12:30;20.10;56.10
21770;DHT22;11046;49.558;8.674;2023-07-20T01:15:36;19.90;56.20
21770;DHT22;11046;49.558;8.674;2023-07-20T01:18:37;19.80;56.40
21770;DHT22;11046;49.558;8.674;2023-07-20T01:21:45;19.80;56.40
21770;DHT22;11046;49.558;8.674;2023-07-20T01:25:12;19.80;56.60
21770;DHT22;11046;49.558;8.674;2023-07-20T01:28:57;19.70;56.80
21770;DHT22;11046;49.558;8.674;2023-07-20T01:32:02;19.60;57.00
21770;DHT22;11046;49.558;8.674;2023-07-20T01:35:06;19.40;57.10
21770;DHT22;11046;49.558;8.674;2023-07-20T01:38:09;19.30;57.30
21770;DHT22;11046;49.558;8.674;2023-07-20T01:41:11;19.20;57.70
21770;DHT22;11046;49.558;8.674;2023-07-20T01:44:12;19.00;57.90
21770;DHT22;11046;49.558;8.674;2023-07-20T01:47:13;18.90;58.20
21770;DHT22;11046;49.558;8.674;2023-07-20T01:50:13;18.80;58.40
21770;DHT22;11046;49.558;8.674;2023-07-20T01:53:14;18.70;58.80
21770;DHT22;11046;49.558;8.674;2023-07-20T01:56:15;18.60;59.10
21770;DHT22;11046;49.558;8.674;2023-07-20T01:59:15;18.50;59.30
21770;DHT22;11046;49.558;8.674;2023-07-20T02:02:16;18.40;59.50
21770;DHT22;11046;49.558;8.674;2023-07-20T02:05:19;18.30;59.80
21770;DHT22;11046;49.558;8.674;2023-07-20T02:08:20;18.20;60.20
21770;DHT22;11046;49.558;8.674;2023-07-20T02:11:20;18.10;61.30
21770;DHT22;11046;49.558;8.674;2023-07-20T02:14:21;18.00;60.60
21770;DHT22;11046;49.558;8.674;2023-07-20T02:17:23;17.90;60.90
21770;DHT22;11046;49.558;8.674;2023-07-20T02:20:23;17.90;61.10
21770;DHT22;11046;49.558;8.674;2023-07-20T02:23:24;17.90;61.10
21770;DHT22;11046;49.558;8.674;2023-07-20T02:26:24;17.90;61.30
21770;DHT22;11046;49.558;8.674;2023-07-20T02:29:25;17.70;61.50
21770;DHT22;11046;49.558;8.674;2023-07-20T02:32:26;17.60;61.90
21770;DHT22;11046;49.558;8.674;2023-07-20T02:35:26;17.60;62.10
21770;DHT22;11046;49.558;8.674;2023-07-20T02:38:27;17.50;62.30
21770;DHT22;11046;49.558;8.674;2023-07-20T02:41:28;17.40;62.60
21770;DHT22;11046;49.558;8.674;2023-07-20T02:44:28;17.40;62.80
21770;DHT22;11046;49.558;8.674;2023-07-20T02:47:29;17.40;62.70
21770;DHT22;11046;49.558;8.674;2023-07-20T02:50:30;17.40;62.90
21770;DHT22;11046;49.558;8.674;2023-07-20T02:53:31;17.30;63.20
21770;DHT22;11046;49.558;8.674;2023-07-20T02:56:31;17.30;63.40
21770;DHT22;11046;49.558;8.674;2023-07-20T02:59:32;17.20;63.40
21770;DHT22;11046;49.558;8.674;2023-07-20T03:02:32;17.20;63.50
21770;DHT22;11046;49.558;8.674;2023-07-20T03:05:33;17.10;64.00
21770;DHT22;11046;49.558;8.674;2023-07-20T03:08:34;17.00;64.20
21770;DHT22;11046;49.558;8.674;2023-07-20T03:11:34;16.90;64.50
21770;DHT22;11046;49.558;8.674;2023-07-20T03:14:35;16.80;64.50
21770;DHT22;11046;49.558;8.674;2023-07-20T03:17:35;16.80;65.00
21770;DHT22;11046;49.558;8.674;2023-07-20T03:20:36;16.80;65.20
21770;DHT22;11046;49.558;8.674;2023-07-20T03:23:38;16.80;65.20
21770;DHT22;11046;49.558;8.674;2023-07-20T03:26:38;16.80;65.00
21770;DHT22;11046;49.558;8.674;2023-07-20T03:29:40;16.80;66.10
21770;DHT22;11046;49.558;8.674;2023-07-20T03:32:41;16.70;65.70
21770;DHT22;11046;49.558;8.674;2023-07-20T03:35:42;16.70;65.70
21770;DHT22;11046;49.558;8.674;2023-07-20T03:38:44;16.70;65.70
21770;DHT22;11046;49.558;8.674;2023-07-20T03:41:44;16.70;66.00
21770;DHT22;11046;49.558;8.674;2023-07-20T03:44:45;16.60;65.90
21770;DHT22;11046;49.558;8.674;2023-07-20T03:47:45;16.60;66.20
21770;DHT22;11046;49.558;8.674;2023-07-20T03:50:50;16.50;66.40
21770;DHT22;11046;49.558;8.674;2023-07-20T03:53:51;16.50;66.50
21770;DHT22;11046;49.558;8.674;2023-07-20T03:56:52;16.50;66.60
21770;DHT22;11046;49.558;8.674;2023-07-20T03:59:52;16.50;66.60
21770;DHT22;11046;49.558;8.674;2023-07-20T04:02:53;16.50;66.60
21770;DHT22;11046;49.558;8.674;2023-07-20T04:05:54;16.50;66.70
21770;DHT22;11046;49.558;8.674;2023-07-20T04:08:58;16.40;67.10
21770;DHT22;11046;49.558;8.674;2023-07-20T04:11:58;16.40;67.40
21770;DHT22;11046;49.558;8.674;2023-07-20T04:15:00;16.50;67.60
21770;DHT22;11046;49.558;8.674;2023-07-20T04:18:02;16.50;67.70
21770;DHT22;11046;49.558;8.674;2023-07-20T04:21:02;16.50;67.70
21770;DHT22;11046;49.558;8.674;2023-07-20T04:24:03;16.50;68.00
21770;DHT22;11046;49.558;8.674;2023-07-20T04:27:05;16.50;68.00
21770;DHT22;11046;49.558;8.674;2023-07-20T04:30:10;16.40;68.40
21770;DHT22;11046;49.558;8.674;2023-07-20T04:33:12;16.40;68.80
21770;DHT22;11046;49.558;8.674;2023-07-20T04:36:14;16.50;68.80
21770;DHT22;11046;49.558;8.674;2023-07-20T04:39:16;16.50;68.70
21770;DHT22;11046;49.558;8.674;2023-07-20T04:42:18;16.60;68.90
21770;DHT22;11046;49.558;8.674;2023-07-20T04:45:20;16.70;68.80
21770;DHT22;11046;49.558;8.674;2023-07-20T04:48:23;16.80;68.80
21770;DHT22;11046;49.558;8.674;2023-07-20T04:51:26;16.90;68.90
21770;DHT22;11046;49.558;8.674;2023-07-20T04:54:29;17.00;69.10
21770;DHT22;11046;49.558;8.674;2023-07-20T04:57:30;17.10;68.80
21770;DHT22;11046;49.558;8.674;2023-07-20T05:00:32;17.20;68.60
21770;DHT22;11046;49.558;8.674;2023-07-20T05:03:33;17.30;68.60
21770;DHT22;11046;49.558;8.674;2023-07-20T05:06:33;17.40;68.80
21770;DHT22;11046;49.558;8.674;2023-07-20T05:09:35;17.50;69.10
21770;DHT22;11046;49.558;8.674;2023-07-20T05:12:35;17.60;68.90
21770;DHT22;11046;49.558;8.674;2023-07-20T05:15:36;17.80;68.60
21770;DHT22;11046;49.558;8.674;2023-07-20T05:18:38;17.90;69.10
21770;DHT22;11046;49.558;8.674;2023-07-20T05:21:39;18.00;68.00
21770;DHT22;11046;49.558;8.674;2023-07-20T05:24:40;18.00;68.10
21770;DHT22;11046;49.558;8.674;2023-07-20T05:27:40;18.00;68.10
21770;DHT22;11046;49.558;8.674;2023-07-20T05:30:41;18.10;67.90
21770;DHT22;11046;49.558;8.674;2023-07-20T05:33:41;18.20;67.70
21770;DHT22;11046;49.558;8.674;2023-07-20T05:36:42;18.30;67.70
21770;DHT22;11046;49.558;8.674;2023-07-20T05:39:42;18.40;67.70
21770;DHT22;11046;49.558;8.674;2023-07-20T05:42:43;18.50;67.60
21770;DHT22;11046;49.558;8.674;2023-07-20T05:45:44;18.60;67.30
21770;DHT22;11046;49.558;8.674;2023-07-20T05:48:45;18.60;67.20
21770;DHT22;11046;49.558;8.674;2023-07-20T05:51:46;18.70;67.10
21770;DHT22;11046;49.558;8.674;2023-07-20T05:54:47;18.90;67.00
21770;DHT22;11046;49.558;8.674;2023-07-20T05:57:47;19.00;66.50
21770;DHT22;11046;49.558;8.674;2023-07-20T06:00:50;19.10;66.20
21770;DHT22;11046;49.558;8.674;2023-07-20T06:03:51;19.30;65.80
21770;DHT22;11046;49.558;8.674;2023-07-20T06:06:51;19.40;65.80
21770;DHT22;11046;49.558;8.674;2023-07-20T06:09:52;19.60;65.80
21770;DHT22;11046;49.558;8.674;2023-07-20T06:12:52;19.80;65.50
21770;DHT22;11046;49.558;8.674;2023-07-20T06:15:53;19.80;64.80
21770;DHT22;11046;49.558;8.674;2023-07-20T06:18:54;20.10;64.50
21770;DHT22;11046;49.558;8.674;2023-07-20T06:21:54;20.30;64.20
21770;DHT22;11046;49.558;8.674;2023-07-20T06:24:55;20.50;64.00
21770;DHT22;11046;49.558;8.674;2023-07-20T06:27:56;20.80;63.40
21770;DHT22;11046;49.558;8.674;2023-07-20T06:31:01;21.00;63.00
21770;DHT22;11046;49.558;8.674;2023-07-20T06:34:02;21.30;62.20
21770;DHT22;11046;49.558;8.674;2023-07-20T06:37:04;21.60;61.70
21770;DHT22;11046;49.558;8.674;2023-07-20T06:40:05;21.90;61.10
21770;DHT22;11046;49.558;8.674;2023-07-20T06:43:06;22.10;60.30
21770;DHT22;11046;49.558;8.674;2023-07-20T06:46:07;22.20;59.80
21770;DHT22;11046;49.558;8.674;2023-07-20T06:49:07;22.20;59.20
21770;DHT22;11046;49.558;8.674;2023-07-20T06:52:08;22.10;59.00
21770;DHT22;11046;49.558;8.674;2023-07-20T06:55:09;22.00;58.90
21770;DHT22;11046;49.558;8.674;2023-07-20T06:58:10;22.00;59.00
21770;DHT22;11046;49.558;8.674;2023-07-20T07:01:11;22.00;58.80
21770;DHT22;11046;49.558;8.674;2023-07-20T07:04:12;21.90;58.50
21770;DHT22;11046;49.558;8.674;2023-07-20T07:07:14;21.90;58.50
21770;DHT22;11046;49.558;8.674;2023-07-20T07:10:15;22.10;58.40
21770;DHT22;11046;49.558;8.674;2023-07-20T07:13:15;22.40;58.50
21770;DHT22;11046;49.558;8.674;2023-07-20T07:16:17;23.00;58.40
21770;DHT22;11046;49.558;8.674;2023-07-20T07:19:19;23.60;57.70
21770;DHT22;11046;49.558;8.674;2023-07-20T07:22:20;24.00;56.90
21770;DHT22;11046;49.558;8.674;2023-07-20T07:25:22;24.20;55.90
21770;DHT22;11046;49.558;8.674;2023-07-20T07:28:22;24.20;55.60
21770;DHT22;11046;49.558;8.674;2023-07-20T07:31:25;24.50;55.20
21770;DHT22;11046;49.558;8.674;2023-07-20T07:34:25;24.80;54.70
21770;DHT22;11046;49.558;8.674;2023-07-20T07:37:26;24.80;54.20
21770;DHT22;11046;49.558;8.674;2023-07-20T07:40:27;24.90;53.90
21770;DHT22;11046;49.558;8.674;2023-07-20T07:43:27;25.00;53.80
21770;DHT22;11046;49.558;8.674;2023-07-20T07:46:28;25.40;53.80
21770;DHT22;11046;49.558;8.674;2023-07-20T07:49:30;25.80;52.70
21770;DHT22;11046;49.558;8.674;2023-07-20T07:52:31;25.80;52.00
21770;DHT22;11046;49.558;8.674;2023-07-20T07:55:32;25.40;51.70
21770;DHT22;11046;49.558;8.674;2023-07-20T07:58:33;24.90;52.00
21770;DHT22;11046;49.558;8.674;2023-07-20T08:01:33;24.30;52.50
21770;DHT22;11046;49.558;8.674;2023-07-20T08:04:35;23.80;53.20
21770;DHT22;11046;49.558;8.674;2023-07-20T08:07:36;23.30;53.60
21770;DHT22;11046;49.558;8.674;2023-07-20T08:10:37;22.80;54.20
21770;DHT22;11046;49.558;8.674;2023-07-20T08:13:37;22.50;54.70
21770;DHT22;11046;49.558;8.674;2023-07-20T08:16:38;22.30;55.00
21770;DHT22;11046;49.558;8.674;2023-07-20T08:19:38;22.30;55.20
21770;DHT22;11046;49.558;8.674;2023-07-20T08:22:42;22.30;55.70
21770;DHT22;11046;49.558;8.674;2023-07-20T08:25:42;23.00;55.90
21770;DHT22;11046;49.558;8.674;2023-07-20T08:28:44;23.80;54.90
21770;DHT22;11046;49.558;8.674;2023-07-20T08:31:46;24.60;53.60
21770;DHT22;11046;49.558;8.674;2023-07-20T08:34:47;25.00;52.60
21770;DHT22;11046;49.558;8.674;2023-07-20T08:37:47;25.40;51.30
21770;DHT22;11046;49.558;8.674;2023-07-20T08:40:48;25.30;50.60
21770;DHT22;11046;49.558;8.674;2023-07-20T08:43:48;24.90;50.70
21770;DHT22;11046;49.558;8.674;2023-07-20T08:46:51;24.60;51.20
21770;DHT22;11046;49.558;8.674;2023-07-20T08:49:53;24.10;51.60
21770;DHT22;11046;49.558;8.674;2023-07-20T08:52:57;23.90;52.20
21770;DHT22;11046;49.558;8.674;2023-07-20T08:55:59;24.00;53.00
21770;DHT22;11046;49.558;8.674;2023-07-20T08:59:01;24.60;52.60
21770;DHT22;11046;49.558;8.674;2023-07-20T09:02:02;25.30;51.80
21770;DHT22;11046;49.558;8.674;2023-07-20T09:05:04;26.20;51.20
21770;DHT22;11046;49.558;8.674;2023-07-20T09:08:05;26.90;50.30
21770;DHT22;11046;49.558;8.674;2023-07-20T09:11:06;27.50;49.00
21770;DHT22;11046;49.558;8.674;2023-07-20T09:14:09;27.70;47.60
21770;DHT22;11046;49.558;8.674;2023-07-20T09:17:13;27.30;47.20
21770;DHT22;11046;49.558;8.674;2023-07-20T09:20:16;26.70;47.30
21770;DHT22;11046;49.558;8.674;2023-07-20T09:23:17;26.30;48.00
21770;DHT22;11046;49.558;8.674;2023-07-20T09:26:17;26.70;48.00
21770;DHT22;11046;49.558;8.674;2023-07-20T09:29:19;27.00;47.50
21770;DHT22;11046;49.558;8.674;2023-07-20T09:32:20;27.30;46.80
21770;DHT22;11046;49.558;8.674;2023-07-20T09:35:22;27.20;46.40
21770;DHT22;11046;49.558;8.674;2023-07-20T09:38:23;27.40;46.40
21770;DHT22;11046;49.558;8.674;2023-07-20T09:41:26;27.60;46.10
21770;DHT22;11046;49.558;8.674;2023-07-20T09:44:28;27.80;46.00
21770;DHT22;11046;49.558;8.674;2023-07-20T09:47:28;28.00;45.30
21770;DHT22;11046;49.558;8.674;2023-07-20T09:50:29;28.10;45.50
21770;DHT22;11046;49.558;8.674;2023-07-20T09:53:30;28.10;45.40
21770;DHT22;11046;49.558;8.674;2023-07-20T09:56:33;27.70;45.70
21770;DHT22;11046;49.558;8.674;2023-07-20T09:59:34;27.80;45.90
21770;DHT22;11046;49.558;8.674;2023-07-20T10:02:37;27.80;45.30
21770;DHT22;11046;49.558;8.674;2023-07-20T10:05:43;27.40;45.10
21770;DHT22;11046;49.558;8.674;2023-07-20T10:08:47;27.00;45.60
21770;DHT22;11046;49.558;8.674;2023-07-20T10:11:50;26.80;45.80
21770;DHT22;11046;49.558;8.674;2023-07-20T10:18:38;26.20;46.20
21770;DHT22;11046;49.558;8.674;2023-07-20T10:21:47;26.60;45.90
21770;DHT22;11046;49.558;8.674;2023-07-20T10:24:49;27.00;46.10
21770;DHT22;11046;49.558;8.674;2023-07-20T10:27:50;27.40;45.90
21770;DHT22;11046;49.558;8.674;2023-07-20T10:30:51;27.70;45.70
21770;DHT22;11046;49.558;8.674;2023-07-20T10:33:52;28.10;45.30
21770;DHT22;11046;49.558;8.674;2023-07-20T10:36:53;28.40;44.20
21770;DHT22;11046;49.558;8.674;2023-07-20T10:39:55;28.10;43.80
21770;DHT22;11046;49.558;8.674;2023-07-20T10:43:01;27.80;44.00
21770;DHT22;11046;49.558;8.674;2023-07-20T10:46:03;27.70;43.90
21770;DHT22;11046;49.558;8.674;2023-07-20T10:49:05;27.90;43.70
21770;DHT22;11046;49.558;8.674;2023-07-20T10:52:10;27.70;43.90
21770;DHT22;11046;49.558;8.674;2023-07-20T10:55:14;27.30;43.60
21770;DHT22;11046;49.558;8.674;2023-07-20T10:58:15;27.10;44.00
21770;DHT22;11046;49.558;8.674;2023-07-20T11:01:17;27.10;44.20
21770;DHT22;11046;49.558;8.674;2023-07-20T11:04:18;27.30;44.20
21770;DHT22;11046;49.558;8.674;2023-07-20T11:07:37;27.80;43.80
21770;DHT22;11046;49.558;8.674;2023-07-20T11:10:40;28.50;42.90
21770;DHT22;11046;49.558;8.674;2023-07-20T11:13:54;28.80;42.70
21770;DHT22;11046;49.558;8.674;2023-07-20T11:16:55;29.00;41.80
21770;DHT22;11046;49.558;8.674;2023-07-20T11:20:00;29.10;42.10
21770;DHT22;11046;49.558;8.674;2023-07-20T11:23:01;28.80;42.00
21770;DHT22;11046;49.558;8.674;2023-07-20T11:26:02;28.40;42.00
21770;DHT22;11046;49.558;8.674;2023-07-20T11:29:04;27.80;42.10
21770;DHT22;11046;49.558;8.674;2023-07-20T11:32:05;27.40;42.50
21770;DHT22;11046;49.558;8.674;2023-07-20T11:35:05;27.30;42.80
21770;DHT22;11046;49.558;8.674;2023-07-20T11:38:06;27.60;43.30
21770;DHT22;11046;49.558;8.674;2023-07-20T11:41:07;27.90;42.40
21770;DHT22;11046;49.558;8.674;2023-07-20T11:44:09;27.90;42.30
21770;DHT22;11046;49.558;8.674;2023-07-20T11:47:13;27.90;41.70
21770;DHT22;11046;49.558;8.674;2023-07-20T11:50:14;27.70;42.10
21770;DHT22;11046;49.558;8.674;2023-07-20T11:53:16;27.50;42.50
21770;DHT22;11046;49.558;8.674;2023-07-20T11:56:17;27.40;43.00
21770;DHT22;11046;49.558;8.674;2023-07-20T11:59:18;27.30;42.90
21770;DHT22;11046;49.558;8.674;2023-07-20T12:02:19;27.20;42.80
21770;DHT22;11046;49.558;8.674;2023-07-20T12:05:22;27.10;43.00
21770;DHT22;11046;49.558;8.674;2023-07-20T12:08:23;27.10;43.00
21770;DHT22;11046;49.558;8.674;2023-07-20T12:11:39;27.10;43.80
21770;DHT22;11046;49.558;8.674;2023-07-20T12:14:39;27.10;43.00
21770;DHT22;11046;49.558;8.674;2023-07-20T12:17:49;27.20;43.10
21770;DHT22;11046;49.558;8.674;2023-07-20T12:20:59;27.20;42.90
21770;DHT22;11046;49.558;8.674;2023-07-20T12:24:00;27.30;42.40
21770;DHT22;11046;49.558;8.674;2023-07-20T12:27:00;27.30;42.30
21770;DHT22;11046;49.558;8.674;2023-07-20T12:30:01;27.40;42.20
21770;DHT22;11046;49.558;8.674;2023-07-20T12:33:03;27.30;42.30
21770;DHT22;11046;49.558;8.674;2023-07-20T12:36:05;27.40;42.20
21770;DHT22;11046;49.558;8.674;2023-07-20T12:39:05;27.40;42.20
21770;DHT22;11046;49.558;8.674;2023-07-20T12:42:06;27.80;42.50
21770;DHT22;11046;49.558;8.674;2023-07-20T12:45:07;28.10;42.00
21770;DHT22;11046;49.558;8.674;2023-07-20T12:48:08;28.40;41.60
21770;DHT22;11046;49.558;8.674;2023-07-20T12:51:09;28.50;41.60
21770;DHT22;11046;49.558;8.674;2023-07-20T12:54:10;28.60;41.30
21770;DHT22;11046;49.558;8.674;2023-07-20T12:57:10;28.70;41.30
21770;DHT22;11046;49.558;8.674;2023-07-20T13:00:11;28.90;41.20
21770;DHT22;11046;49.558;8.674;2023-07-20T13:03:12;29.00;40.50
21770;DHT22;11046;49.558;8.674;2023-07-20T13:06:12;28.90;40.80
21770;DHT22;11046;49.558;8.674;2023-07-20T13:09:13;29.20;40.80
21770;DHT22;11046;49.558;8.674;2023-07-20T13:12:13;29.50;40.50
21770;DHT22;11046;49.558;8.674;2023-07-20T13:15:14;29.80;40.10
21770;DHT22;11046;49.558;8.674;2023-07-20T13:18:15;30.10;39.50
21770;DHT22;11046;49.558;8.674;2023-07-20T13:21:15;30.00;38.90
21770;DHT22;11046;49.558;8.674;2023-07-20T13:24:17;29.90;38.30
21770;DHT22;11046;49.558;8.674;2023-07-20T13:27:18;29.60;38.00
21770;DHT22;11046;49.558;8.674;2023-07-20T13:30:18;29.30;38.40
21770;DHT22;11046;49.558;8.674;2023-07-20T13:33:19;29.00;38.70
21770;DHT22;11046;49.558;8.674;2023-07-20T13:36:20;28.90;38.90
21770;DHT22;11046;49.558;8.674;2023-07-20T13:39:21;28.90;39.20
21770;DHT22;11046;49.558;8.674;2023-07-20T13:42:24;29.10;39.40
21770;DHT22;11046;49.558;8.674;2023-07-20T13:45:25;29.30;39.20
21770;DHT22;11046;49.558;8.674;2023-07-20T13:48:25;29.40;39.20
21770;DHT22;11046;49.558;8.674;2023-07-20T13:51:27;29.30;38.80
21770;DHT22;11046;49.558;8.674;2023-07-20T13:54:28;29.40;38.80
21770;DHT22;11046;49.558;8.674;2023-07-20T13:57:28;29.30;38.70
21770;DHT22;11046;49.558;8.674;2023-07-20T14:00:29;29.40;38.70
21770;DHT22;11046;49.558;8.674;2023-07-20T14:03:33;29.20;38.50
21770;DHT22;11046;49.558;8.674;2023-07-20T14:06:33;29.10;38.50
21770;DHT22;11046;49.558;8.674;2023-07-20T14:09:34;28.80;38.40
21770;DHT22;11046;49.558;8.674;2023-07-20T14:12:35;28.50;38.60
21770;DHT22;11046;49.558;8.674;2023-07-20T14:15:35;28.20;38.90
21770;DHT22;11046;49.558;8.674;2023-07-20T14:18:36;28.10;39.40
21770;DHT22;11046;49.558;8.674;2023-07-20T14:21:37;27.90;39.60
21770;DHT22;11046;49.558;8.674;2023-07-20T14:24:37;27.70;39.90
21770;DHT22;11046;49.558;8.674;2023-07-20T14:27:38;27.80;40.20
21770;DHT22;11046;49.558;8.674;2023-07-20T14:30:38;27.80;40.10
21770;DHT22;11046;49.558;8.674;2023-07-20T14:33:39;27.70;40.20
21770;DHT22;11046;49.558;8.674;2023-07-20T14:36:40;27.90;40.20
21770;DHT22;11046;49.558;8.674;2023-07-20T14:39:40;27.70;40.00
21770;DHT22;11046;49.558;8.674;2023-07-20T14:42:41;27.50;40.20
21770;DHT22;11046;49.558;8.674;2023-07-20T14:45:41;27.40;40.40
21770;DHT22;11046;49.558;8.674;2023-07-20T14:48:42;27.30;40.40
21770;DHT22;11046;49.558;8.674;2023-07-20T14:51:43;27.20;40.80
21770;DHT22;11046;49.558;8.674;2023-07-20T14:54:47;27.30;41.10
21770;DHT22;11046;49.558;8.674;2023-07-20T14:57:51;27.50;41.00
21770;DHT22;11046;49.558;8.674;2023-07-20T15:00:52;28.00;41.10
21770;DHT22;11046;49.558;8.674;2023-07-20T15:03:52;28.30;40.70
21770;DHT22;11046;49.558;8.674;2023-07-20T15:06:53;28.50;40.20
21770;DHT22;11046;49.558;8.674;2023-07-20T15:09:55;28.60;39.70
21770;DHT22;11046;49.558;8.674;2023-07-20T15:12:55;28.60;39.50
21770;DHT22;11046;49.558;8.674;2023-07-20T15:15:57;28.60;39.40
21770;DHT22;11046;49.558;8.674;2023-07-20T15:18:57;28.40;39.30
21770;DHT22;11046;49.558;8.674;2023-07-20T15:21:58;28.20;39.10
21770;DHT22;11046;49.558;8.674;2023-07-20T15:24:58;28.10;39.10
21770;DHT22;11046;49.558;8.674;2023-07-20T15:27:59;28.00;39.50
21770;DHT22;11046;49.558;8.674;2023-07-20T15:31:04;28.00;39.80
21770;DHT22;11046;49.558;8.674;2023-07-20T15:34:05;28.10;40.00
21770;DHT22;11046;49.558;8.674;2023-07-20T15:37:06;28.20;39.90
21770;DHT22;11046;49.558;8.674;2023-07-20T15:40:07;28.20;39.50
21770;DHT22;11046;49.558;8.674;2023-07-20T15:43:08;28.10;39.30
21770;DHT22;11046;49.558;8.674;2023-07-20T15:49:24;27.70;39.20
21770;DHT22;11046;49.558;8.674;2023-07-20T15:52:27;27.50;39.90
21770;DHT22;11046;49.558;8.674;2023-07-20T15:55:27;27.40;40.10
21770;DHT22;11046;49.558;8.674;2023-07-20T15:58:28;27.30;40.10
21770;DHT22;11046;49.558;8.674;2023-07-20T16:01:29;27.20;40.00
21770;DHT22;11046;49.558;8.674;2023-07-20T16:04:31;27.20;40.20
21770;DHT22;11046;49.558;8.674;2023-07-20T16:07:32;27.20;40.20
21770;DHT22;11046;49.558;8.674;2023-07-20T16:10:33;27.20;39.90
21770;DHT22;11046;49.558;8.674;2023-07-20T16:13:33;27.20;40.10
21770;DHT22;11046;49.558;8.674;2023-07-20T16:16:37;27.20;40.40
21770;DHT22;11046;49.558;8.674;2023-07-20T16:19:38;27.20;40.30
21770;DHT22;11046;49.558;8.674;2023-07-20T16:22:39;27.20;40.20
21770;DHT22;11046;49.558;8.674;2023-07-20T16:25:40;27.20;39.80
21770;DHT22;11046;49.558;8.674;2023-07-20T16:28:40;27.20;39.70
21770;DHT22;11046;49.558;8.674;2023-07-20T16:31:42;27.20;39.50
21770;DHT22;11046;49.558;8.674;2023-07-20T16:34:43;27.20;39.30
21770;DHT22;11046;49.558;8.674;2023-07-20T16:37:43;27.20;39.30
21770;DHT22;11046;49.558;8.674;2023-07-20T16:40:44;27.10;39.40
21770;DHT22;11046;49.558;8.674;2023-07-20T16:43:45;27.00;39.80
21770;DHT22;11046;49.558;8.674;2023-07-20T16:46:45;26.90;39.70
21770;DHT22;11046;49.558;8.674;2023-07-20T16:49:46;26.80;39.90
21770;DHT22;11046;49.558;8.674;2023-07-20T16:52:46;26.60;40.50
21770;DHT22;11046;49.558;8.674;2023-07-20T16:55:51;26.50;40.60
21770;DHT22;11046;49.558;8.674;2023-07-20T16:58:52;26.40;40.50
21770;DHT22;11046;49.558;8.674;2023-07-20T17:01:52;26.50;40.70
21770;DHT22;11046;49.558;8.674;2023-07-20T17:04:53;26.30;40.80
21770;DHT22;11046;49.558;8.674;2023-07-20T17:07:54;26.20;40.90
21770;DHT22;11046;49.558;8.674;2023-07-20T17:10:55;26.20;41.00
21770;DHT22;11046;49.558;8.674;2023-07-20T17:13:56;26.30;40.70
21770;DHT22;11046;49.558;8.674;2023-07-20T17:16:56;26.30;40.70
21770;DHT22;11046;49.558;8.674;2023-07-20T17:19:57;26.30;40.80
21770;DHT22;11046;49.558;8.674;2023-07-20T17:22:58;26.30;40.80
21770;DHT22;11046;49.558;8.674;2023-07-20T17:25:58;26.20;41.00
21770;DHT22;11046;49.558;8.674;2023-07-20T17:28:59;26.30;41.20
21770;DHT22;11046;49.558;8.674;2023-07-20T17:32:00;26.30;41.10
21770;DHT22;11046;49.558;8.674;2023-07-20T17:35:01;26.20;40.90
21770;DHT22;11046;49.558;8.674;2023-07-20T17:38:01;26.20;40.80
21770;DHT22;11046;49.558;8.674;2023-07-20T17:41:02;26.10;40.80
21770;DHT22;11046;49.558;8.674;2023-07-20T17:44:02;26.10;40.90
21770;DHT22;11046;49.558;8.674;2023-07-20T17:47:03;26.10;41.10
21770;DHT22;11046;49.558;8.674;2023-07-20T17:50:09;26.00;41.60
21770;DHT22;11046;49.558;8.674;2023-07-20T17:53:12;25.90;41.80
21770;DHT22;11046;49.558;8.674;2023-07-20T17:56:13;25.90;42.00
21770;DHT22;11046;49.558;8.674;2023-07-20T17:59:13;25.70;42.00
21770;DHT22;11046;49.558;8.674;2023-07-20T18:02:14;25.70;42.20
21770;DHT22;11046;49.558;8.674;2023-07-20T18:05:14;25.70;42.40
21770;DHT22;11046;49.558;8.674;2023-07-20T18:08:16;25.60;42.40
21770;DHT22;11046;49.558;8.674;2023-07-20T18:11:17;25.70;42.50
21770;DHT22;11046;49.558;8.674;2023-07-20T18:14:18;25.40;42.80
21770;DHT22;11046;49.558;8.674;2023-07-20T18:17:18;25.40;43.00
21770;DHT22;11046;49.558;8.674;2023-07-20T18:20:19;25.20;43.20
21770;DHT22;11046;49.558;8.674;2023-07-20T18:23:20;25.20;43.50
21770;DHT22;11046;49.558;8.674;2023-07-20T18:26:21;25.10;43.60
21770;DHT22;11046;49.558;8.674;2023-07-20T18:29:22;25.00;43.60
21770;DHT22;11046;49.558;8.674;2023-07-20T18:32:23;24.90;43.70
21770;DHT22;11046;49.558;8.674;2023-07-20T18:35:23;24.90;44.10
21770;DHT22;11046;49.558;8.674;2023-07-20T18:38:24;24.70;44.00
21770;DHT22;11046;49.558;8.674;2023-07-20T18:41:25;24.70;44.20
21770;DHT22;11046;49.558;8.674;2023-07-20T18:44:25;24.60;44.30
21770;DHT22;11046;49.558;8.674;2023-07-20T18:47:27;24.50;44.50
21770;DHT22;11046;49.558;8.674;2023-07-20T18:50:27;24.40;44.50
21770;DHT22;11046;49.558;8.674;2023-07-20T18:53:29;24.30;44.70
21770;DHT22;11046;49.558;8.674;2023-07-20T18:56:30;24.20;44.80
21770;DHT22;11046;49.558;8.674;2023-07-20T18:59:30;24.10;44.90
21770;DHT22;11046;49.558;8.674;2023-07-20T19:02:33;24.00;45.00
21770;DHT22;11046;49.558;8.674;2023-07-20T19:05:34;23.80;45.10
21770;DHT22;11046;49.558;8.674;2023-07-20T19:08:41;23.80;45.30
21770;DHT22;11046;49.558;8.674;2023-07-20T19:11:41;23.70;45.50
21770;DHT22;11046;49.558;8.674;2023-07-20T19:14:42;23.60;45.60
21770;DHT22;11046;49.558;8.674;2023-07-20T19:17:43;23.60;45.60